Time;durP1;ratioP1;P1;durP2;ratioP2;P2;SDS_P1;SDS_P2;PMS_P1;PMS_P2;Temp;Humidity;BMP_temperature;BMP_pressure;BME280_temperature;BME280_humidity;BME280_pressure;Samples;Min_cycle;Max_cycle;Signal;HPM_P1;HPM_P2
2022/10/27 00:03:17;;;;;;;;;;;12.10;99.90;;;10.93;100.00;96557.97;10536456;28;1581;-72
2022/10/27 00:08:20;;;;;;;;;;;12.00;99.90;;;10.89;100.00;96551.50;10535938;28;1652;-71
2022/10/27 00:13:23;;;;;;;;;;;12.00;99.90;;;10.75;100.00;96562.69;10533963;28;1370;-74
2022/10/27 00:18:26;;;;;;;;;;;11.80;99.90;;;10.73;100.00;96556.72;10537244;28;1981;-74
2022/10/27 00:23:29;;;;;;;;;;;11.80;99.90;;;10.72;100.00;96555.09;10532789;28;1683;-70
2022/10/27 00:28:32;;;;;;;;;;;11.70;99.90;;;10.68;100.00;96550.47;10528578;28;1422;-71
2022/10/27 00:33:34;;;;;;;;;;;11.70;99.90;;;10.62;100.00;96546.13;10536081;28;1203;-69
2022/10/27 00:38:37;;;;;;;;;;;11.60;99.90;;;10.63;100.00;96548.56;10528890;28;1971;-72
2022/10/27 00:43:40;;;;;;;;;;;11.60;99.90;;;10.62;100.00;96557.69;10535998;28;1145;-72
2022/10/27 00:48:44;;;;;;;;;;;11.60;99.90;;;10.55;100.00;96565.13;10532255;28;1746;-71
2022/10/27 00:53:46;;;;;;;;;;;11.60;99.90;;;10.63;100.00;96564.72;10535035;28;1624;-70
2022/10/27 00:58:49;;;;;;;;;;;11.60;99.90;;;10.68;100.00;96566.59;10523482;28;1971;-69
2022/10/27 01:03:52;;;;;;;;;;;11.70;99.90;;;10.63;100.00;96566.59;10534468;28;1110;-71
2022/10/27 01:08:54;;;;;;;;;;;11.70;99.90;;;10.66;100.00;96568.75;10531758;28;1663;-71
2022/10/27 01:13:57;;;;;;;;;;;11.70;99.90;;;10.61;100.00;96571.38;10534382;28;1306;-71
2022/10/27 01:19:00;;;;;;;;;;;11.60;99.90;;;10.57;100.00;96568.41;10539555;28;1983;-72
2022/10/27 01:24:02;;;;;;;;;;;11.60;99.90;;;10.59;100.00;96568.97;10536475;28;1077;-71
2022/10/27 01:29:06;;;;;;;;;;;11.60;99.90;;;10.54;100.00;96566.22;10531050;28;1660;-71
2022/10/27 01:34:08;;;;;;;;;;;11.50;99.90;;;10.49;100.00;96561.59;10517167;28;1343;-72
2022/10/27 01:39:11;;;;;;;;;;;11.60;99.90;;;10.41;100.00;96566.63;10532234;28;1981;-76
2022/10/27 01:44:19;;;;;;;;;;;11.50;99.90;;;10.38;100.00;96562.56;10544976;28;1021;-70
2022/10/27 01:49:28;;;;;;;;;;;11.50;99.90;;;10.27;100.00;96567.00;10543010;28;1804;-71
2022/10/27 01:54:31;;;;;;;;;;;11.30;99.90;;;10.27;100.00;96558.94;10538974;28;1663;-71
2022/10/27 01:59:34;;;;;;;;;;;11.40;99.90;;;10.20;100.00;96558.31;10534798;28;1906;-71
2022/10/27 02:04:36;;;;;;;;;;;11.30;99.90;;;10.21;100.00;96562.63;10545888;28;1126;-71
2022/10/27 02:09:39;;;;;;;;;;;11.20;99.90;;;10.16;100.00;96565.25;10542365;28;1684;-78
2022/10/27 02:14:42;;;;;;;;;;;11.20;99.90;;;10.15;100.00;96582.44;10557623;28;1347;-78
2022/10/27 02:19:45;;;;;;;;;;;11.20;99.90;;;10.04;100.00;96564.56;10536805;28;1980;-74
2022/10/27 02:24:50;;;;;;;;;;;11.10;99.90;;;10.04;100.00;96572.63;10541601;28;879;-74
2022/10/27 02:29:52;;;;;;;;;;;11.10;99.90;;;9.95;100.00;96561.50;10535428;28;1584;-71
2022/10/27 02:34:55;;;;;;;;;;;11.10;99.90;;;9.91;100.00;96564.94;10539977;28;1489;-71
2022/10/27 02:39:57;;;;;;;;;;;11.00;99.90;;;9.91;100.00;96573.00;10538031;28;1914;-71
2022/10/27 02:45:00;;;;;;;;;;;11.00;99.90;;;9.92;100.00;96570.03;10538983;28;1696;-69
2022/10/27 02:50:03;;;;;;;;;;;11.00;99.90;;;9.80;100.00;96568.53;10540277;28;1133;-71
2022/10/27 02:55:05;;;;;;;;;;;10.90;99.90;;;9.69;100.00;96568.44;10535355;28;1707;-71
2022/10/27 03:00:08;;;;;;;;;;;10.80;99.90;;;9.72;100.00;96577.84;10538507;28;1971;-71
2022/10/27 03:05:11;;;;;;;;;;;10.80;99.90;;;9.66;100.00;96578.84;10538834;28;1873;-71
2022/10/27 03:10:13;;;;;;;;;;;10.20;99.90;;;9.57;100.00;96574.97;10538180;28;1640;-69
2022/10/27 03:15:16;;;;;;;;;;;10.70;99.90;;;9.43;100.00;96571.81;10536492;28;1668;-71
2022/10/27 03:20:18;;;;;;;;;;;10.60;99.90;;;9.39;100.00;96574.19;10538706;28;1981;-71
2022/10/27 03:25:21;;;;;;;;;;;10.50;99.90;;;9.29;100.00;96566.00;10533113;28;1640;-71
2022/10/27 03:30:24;;;;;;;;;;;10.40;99.90;;;9.25;100.00;96575.59;10531484;28;1515;-72
2022/10/27 03:35:26;;;;;;;;;;;10.30;99.90;;;9.22;100.00;96565.31;10537612;28;1525;-76
2022/10/27 03:40:29;;;;;;;;;;;10.30;99.90;;;9.26;100.00;96573.72;10538129;28;1906;-74
2022/10/27 03:45:33;;;;;;;;;;;10.30;99.90;;;9.22;100.00;96581.41;10534252;28;1805;-75
2022/10/27 03:50:36;;;;;;;;;;;10.30;99.90;;;9.21;100.00;96575.25;10534990;28;1750;-68
2022/10/27 03:55:39;;;;;;;;;;;10.30;99.90;;;9.12;100.00;96573.25;10537921;28;1129;-70
2022/10/27 04:00:42;;;;;;;;;;;10.30;99.90;;;9.12;100.00;96576.72;10529640;28;1926;-71
2022/10/27 04:05:44;;;;;;;;;;;10.20;99.90;;;9.06;100.00;96583.06;10532818;28;1576;-72
2022/10/27 04:10:47;;;;;;;;;;;10.10;99.90;;;9.01;100.00;96600.94;10537142;28;1113;-70
2022/10/27 04:15:49;;;;;;;;;;;10.10;99.90;;;8.97;100.00;96594.44;10537056;28;1671;-71
2022/10/27 04:20:52;;;;;;;;;;;10.10;99.90;;;9.06;100.00;96592.97;10543589;28;1989;-73
2022/10/27 04:25:55;;;;;;;;;;;10.10;99.90;;;8.97;100.00;96605.16;10528744;28;1687;-71
2022/10/27 04:30:57;;;;;;;;;;;10.00;99.90;;;8.84;100.00;96596.41;10530642;28;1517;-71
2022/10/27 04:36:00;;;;;;;;;;;9.90;99.90;;;8.88;100.00;96591.34;10534687;28;1556;-71
2022/10/27 04:41:03;;;;;;;;;;;10.00;99.90;;;8.91;100.00;96598.91;10495905;28;1970;-70
2022/10/27 04:46:05;;;;;;;;;;;9.90;99.90;;;8.92;100.00;96611.28;10520485;28;1660;-72
2022/10/27 04:51:08;;;;;;;;;;;10.00;99.90;;;8.86;100.00;96593.47;10532108;28;1624;-70
2022/10/27 04:56:11;;;;;;;;;;;10.00;99.90;;;8.77;100.00;96609.13;10533193;28;1443;-71
2022/10/27 05:01:14;;;;;;;;;;;9.90;99.90;;;8.81;100.00;96601.41;10528468;28;1914;-70
2022/10/27 05:06:16;;;;;;;;;;;9.90;99.90;;;8.69;100.00;96603.34;10536805;28;1007;-72
2022/10/27 05:11:19;;;;;;;;;;;9.90;99.90;;;8.70;100.00;96610.31;10526634;28;1125;-72
2022/10/27 05:16:21;;;;;;;;;;;9.80;99.90;;;8.66;100.00;96604.66;10527388;28;1569;-72
2022/10/27 05:21:24;;;;;;;;;;;9.80;99.90;;;8.60;100.00;96601.06;10535156;28;1898;-72
2022/10/27 05:26:28;;;;;;;;;;;9.70;99.90;;;8.51;100.00;96597.13;10535209;28;1675;-72
2022/10/27 05:31:34;;;;;;;;;;;9.60;99.90;;;8.55;100.00;96592.94;10535622;28;1106;-70
2022/10/27 05:36:36;;;;;;;;;;;9.60;99.90;;;8.53;100.00;96594.22;10532490;28;1482;-71
2022/10/27 05:41:45;;;;;;;;;;;9.60;99.90;;;8.62;100.00;96603.50;10544392;28;1971;-71
2022/10/27 05:46:48;;;;;;;;;;;9.70;99.90;;;8.84;100.00;96611.66;10536411;28;1671;-70
2022/10/27 05:51:54;;;;;;;;;;;9.80;99.90;;;8.68;100.00;96617.81;10534775;28;1117;-70
2022/10/27 05:56:56;;;;;;;;;;;9.80;99.90;;;8.73;100.00;96618.72;10526703;28;1722;-69
2022/10/27 06:02:00;;;;;;;;;;;9.80;99.90;;;8.72;100.00;96624.31;10530865;28;1918;-71
2022/10/27 06:07:02;;;;;;;;;;;9.80;99.90;;;8.72;100.00;96624.31;10528285;28;1660;-72
2022/10/27 06:12:05;;;;;;;;;;;9.80;99.90;;;8.71;100.00;96631.53;10533428;28;1141;-74
2022/10/27 06:17:07;;;;;;;;;;;9.70;99.90;;;8.78;100.00;96634.06;10529990;28;1702;-71
2022/10/27 06:22:10;;;;;;;;;;;9.80;99.90;;;8.85;100.00;96640.09;10534035;28;1902;-70
2022/10/27 06:27:18;;;;;;;;;;;9.80;99.90;;;8.95;100.00;96640.25;10532357;28;1707;-70
2022/10/27 06:32:20;;;;;;;;;;;9.90;99.90;;;8.92;100.00;96651.50;10540768;28;1118;-69
2022/10/27 06:37:23;;;;;;;;;;;9.90;99.90;;;8.96;100.00;96649.13;10534449;28;1786;-74
2022/10/27 06:42:26;;;;;;;;;;;10.00;99.90;;;9.06;100.00;96652.81;10505916;28;1909;-70
2022/10/27 06:47:31;;;;;;;;;;;10.10;99.90;;;9.27;100.00;96655.81;10517082;28;1747;-70
2022/10/27 06:52:33;;;;;;;;;;;10.10;99.90;;;9.35;100.00;96661.63;10539979;28;1090;-71
2022/10/27 06:57:36;;;;;;;;;;;10.30;99.90;;;9.44;100.00;96659.31;10535324;28;1623;-70
2022/10/27 07:02:39;;;;;;;;;;;10.40;99.90;;;9.55;100.00;96666.47;10539873;28;1983;-71
2022/10/27 07:07:44;;;;;;;;;;;10.40;99.90;;;9.59;100.00;96664.91;10539054;28;1687;-70
2022/10/27 07:12:47;;;;;;;;;;;10.50;99.90;;;9.81;100.00;96674.91;10540112;28;1231;-75
2022/10/27 07:17:49;;;;;;;;;;;10.60;99.90;;;10.01;100.00;96672.50;10543702;28;1675;-72
2022/10/27 07:22:55;;;;;;;;;;;10.80;99.90;;;10.17;100.00;96673.50;10539189;28;1983;-72
2022/10/27 07:27:58;;;;;;;;;;;11.00;99.90;;;10.23;100.00;96661.81;10533794;28;1632;-71
2022/10/27 07:33:01;;;;;;;;;;;11.10;99.90;;;10.39;100.00;96668.19;10538802;28;1137;-70
2022/10/27 07:38:03;;;;;;;;;;;11.20;99.90;;;10.49;100.00;96663.75;10535537;28;1636;-70
2022/10/27 07:43:06;;;;;;;;;;;11.20;99.90;;;10.88;100.00;96669.03;10538251;28;1926;-71
2022/10/27 07:48:10;;;;;;;;;;;11.40;99.90;;;10.88;100.00;96670.88;10530487;28;1667;-70
2022/10/27 07:53:15;;;;;;;;;;;11.60;99.90;;;10.93;100.00;96676.31;10538890;28;1141;-72
2022/10/27 07:58:17;;;;;;;;;;;11.70;99.90;;;11.21;100.00;96677.97;10525233;28;1625;-71
2022/10/27 08:03:20;;;;;;;;;;;11.80;99.90;;;11.28;100.00;96673.16;10528582;28;1906;-72
2022/10/27 08:08:23;;;;;;;;;;;11.90;99.90;;;11.43;100.00;96675.16;10528310;28;1799;-71
2022/10/27 08:13:25;;;;;;;;;;;12.10;99.90;;;11.51;100.00;96670.13;10536759;28;1191;-71
2022/10/27 08:18:29;;;;;;;;;;;12.20;99.90;;;11.77;100.00;96663.06;10535571;28;1734;-72
2022/10/27 08:23:32;;;;;;;;;;;12.30;99.90;;;12.00;100.00;96658.38;10537146;28;1914;-70
2022/10/27 08:28:34;;;;;;;;;;;12.50;99.90;;;12.29;100.00;96654.22;10526365;28;1691;-72
2022/10/27 08:33:37;;;;;;;;;;;12.80;99.90;;;12.59;100.00;96650.81;10515905;28;1034;-72
2022/10/27 08:38:40;;;;;;;;;;;13.10;99.90;;;12.88;100.00;96634.97;10522600;28;1597;-70
2022/10/27 08:43:42;;;;;;;;;;;13.40;99.90;;;13.09;100.00;96643.91;10538259;28;1910;-71
2022/10/27 08:48:45;;;;;;;;;;;13.60;99.90;;;13.29;100.00;96648.56;10532254;28;1675;-71
2022/10/27 08:53:48;;;;;;;;;;;13.80;99.90;;;13.28;100.00;96640.72;10535389;28;984;-71
2022/10/27 08:58:50;;;;;;;;;;;14.00;99.90;;;13.65;100.00;96640.44;10525949;28;1715;-71
2022/10/27 09:03:53;;;;;;;;;;;14.10;99.90;;;13.76;100.00;96642.06;10533265;28;1984;-71
2022/10/27 09:08:56;;;;;;;;;;;14.40;99.90;;;13.90;100.00;96635.00;10532929;28;1691;-71
2022/10/27 09:13:59;;;;;;;;;;;14.50;99.90;;;14.14;100.00;96632.53;10529882;28;1531;-71
2022/10/27 09:19:02;;;;;;;;;;;14.80;99.90;;;14.30;100.00;96631.38;10531737;28;1098;-70
2022/10/27 09:24:07;;;;;;;;;;;15.00;99.90;;;14.43;100.00;96646.19;10533425;28;1910;-74
2022/10/27 09:29:10;;;;;;;;;;;15.10;99.90;;;14.73;100.00;96633.66;10528171;28;1462;-73
2022/10/27 09:34:13;;;;;;;;;;;15.20;99.90;;;15.00;100.00;96625.09;10534970;28;1121;-70
2022/10/27 09:39:15;;;;;;;;;;;15.50;99.90;;;15.11;100.00;96623.94;10533130;28;1632;-70
2022/10/27 09:44:23;;;;;;;;;;;15.70;99.90;;;15.20;100.00;96618.72;10532903;28;1890;-75
2022/10/27 09:49:31;;;;;;;;;;;15.80;99.90;;;15.14;100.00;96613.38;10532994;28;1491;-72
2022/10/27 09:54:33;;;;;;;;;;;15.80;99.90;;;15.52;100.00;96610.88;10530582;28;1727;-72
2022/10/27 09:59:36;;;;;;;;;;;16.00;99.90;;;15.82;100.00;96617.16;10531877;28;1692;-71
2022/10/27 10:04:39;;;;;;;;;;;16.30;99.90;;;15.93;100.00;96610.53;10542983;28;1972;-72
2022/10/27 10:09:42;;;;;;;;;;;16.50;99.90;;;16.07;100.00;96602.53;10539828;28;1752;-70
2022/10/27 10:14:44;;;;;;;;;;;16.60;99.90;;;16.04;100.00;96609.34;10539968;28;1494;-71
2022/10/27 10:19:47;;;;;;;;;;;16.70;99.90;;;16.38;100.00;96602.97;10543367;28;1189;-70
2022/10/27 10:24:50;;;;;;;;;;;16.90;99.90;;;16.43;100.00;96601.00;10539688;28;1910;-70
2022/10/27 10:29:53;;;;;;;;;;;17.10;99.90;;;16.71;100.00;96612.88;10535199;28;1410;-71
2022/10/27 10:34:56;;;;;;;;;;;17.20;99.90;;;16.81;100.00;96605.72;10539989;28;1204;-71
2022/10/27 10:39:59;;;;;;;;;;;17.40;99.90;;;16.75;100.00;96608.50;10531319;28;1742;-71
2022/10/27 10:45:02;;;;;;;;;;;17.50;99.90;;;17.02;100.00;96612.47;10535321;28;1913;-74
2022/10/27 10:50:04;;;;;;;;;;;17.60;99.90;;;17.00;100.00;96604.63;10538092;28;1177;-74
2022/10/27 10:55:07;;;;;;;;;;;17.80;99.90;;;17.18;96.54;96605.72;10538558;28;1703;-72
2022/10/27 11:00:10;;;;;;;;;;;17.80;99.90;;;17.09;95.24;96601.22;10538823;28;1647;-71
2022/10/27 11:05:12;;;;;;;;;;;17.90;99.90;;;17.23;96.06;96596.66;10539629;28;1987;-71
2022/10/27 11:10:16;;;;;;;;;;;17.90;99.90;;;17.23;93.98;96591.22;10530125;28;1687;-71
2022/10/27 11:15:19;;;;;;;;;;;17.90;99.90;;;17.29;90.72;96588.13;10538937;28;1683;-72
2022/10/27 11:20:22;;;;;;;;;;;18.00;99.90;;;17.35;93.23;96585.31;10539598;28;1141;-71
2022/10/27 11:25:24;;;;;;;;;;;17.90;99.90;;;17.44;91.66;96569.97;10535723;28;1922;-74
2022/10/27 11:30:27;;;;;;;;;;;18.00;99.90;;;17.74;94.67;96569.44;10538915;28;1365;-71
2022/10/27 11:35:30;;;;;;;;;;;18.30;99.90;;;17.83;93.45;96562.22;10542755;28;1193;-70
2022/10/27 11:40:33;;;;;;;;;;;18.40;99.90;;;17.79;98.34;96560.38;10539032;28;975;-71
2022/10/27 11:45:36;;;;;;;;;;;18.60;99.90;;;17.74;99.85;96565.91;10543809;28;1967;-72
2022/10/27 11:50:38;;;;;;;;;;;18.50;99.90;;;17.79;100.00;96558.47;10545998;28;1062;-71
2022/10/27 11:55:41;;;;;;;;;;;18.50;99.90;;;17.85;99.77;96559.19;10531631;28;1683;-72
2022/10/27 12:00:46;;;;;;;;;;;18.60;99.90;;;18.12;94.53;96552.94;10530851;28;1565;-71
2022/10/27 12:05:49;;;;;;;;;;;18.80;99.90;;;17.96;96.32;96554.38;10534084;28;2033;-75
2022/10/27 12:10:51;;;;;;;;;;;18.80;99.90;;;17.94;96.65;96551.97;10537603;28;1173;-71
2022/10/27 12:15:54;;;;;;;;;;;18.70;99.90;;;18.13;94.82;96551.84;10530800;28;1715;-71
2022/10/27 12:20:57;;;;;;;;;;;18.80;99.90;;;18.14;95.59;96549.94;10497490;28;1129;-73
2022/10/27 12:25:59;;;;;;;;;;;18.80;99.90;;;18.01;96.10;96535.25;10525825;28;1997;-75
2022/10/27 12:31:02;;;;;;;;;;;18.80;99.90;;;18.09;95.24;96545.41;10529197;28;1702;-72
2022/10/27 12:36:06;;;;;;;;;;;18.80;99.90;;;18.32;93.86;96538.94;10533316;28;1516;-70
2022/10/27 12:41:09;;;;;;;;;;;18.90;99.90;;;18.46;92.38;96522.59;10534979;28;1133;-71
2022/10/27 12:46:11;;;;;;;;;;;19.00;99.90;;;18.67;91.82;96524.88;10529420;28;1980;-72
2022/10/27 12:51:14;;;;;;;;;;;19.30;99.90;;;18.74;92.57;96526.06;10494332;28;1281;-71
2022/10/27 12:56:17;;;;;;;;;;;19.30;99.90;;;18.52;93.97;96523.28;10526874;28;1711;-71
2022/10/27 13:01:24;;;;;;;;;;;19.30;99.90;;;18.66;94.24;96517.81;10534584;28;1723;-71
2022/10/27 13:06:33;;;;;;;;;;;19.20;99.90;;;18.70;91.85;96519.63;10529675;28;1973;-71
2022/10/27 13:11:35;;;;;;;;;;;19.40;99.90;;;18.94;89.00;96513.09;10535250;28;1133;-72
2022/10/27 13:16:38;;;;;;;;;;;19.50;99.90;;;18.78;93.80;96510.72;10533580;28;1711;-71
2022/10/27 13:21:41;;;;;;;;;;;19.40;99.90;;;18.80;96.06;96500.31;10508836;28;1038;-75
2022/10/27 13:26:44;;;;;;;;;;;19.40;99.90;;;19.02;95.27;96498.72;10511525;28;1640;-71
2022/10/27 13:31:54;;;;;;;;;;;19.60;99.90;;;18.90;96.96;96494.66;10531459;28;1246;-71
2022/10/27 13:36:56;;;;;;;;;;;19.60;99.90;;;18.89;97.19;96495.75;10523105;28;1625;-70
2022/10/27 13:41:59;;;;;;;;;;;19.70;99.90;;;18.87;97.17;96497.97;10543024;28;1980;-71
2022/10/27 13:47:04;;;;;;;;;;;19.60;99.90;;;18.82;97.63;96495.38;10541297;28;1636;-71
2022/10/27 13:52:07;;;;;;;;;;;19.60;99.90;;;18.99;96.49;96493.91;10543555;28;920;-71
2022/10/27 13:57:10;;;;;;;;;;;19.60;99.90;;;18.95;95.97;96498.34;10533293;28;1711;-71
2022/10/27 14:02:12;;;;;;;;;;;19.60;99.90;;;19.00;96.85;96500.94;10542258;28;1977;-71
2022/10/27 14:07:15;;;;;;;;;;;19.60;99.90;;;18.96;97.43;96499.94;10540762;28;1676;-72
2022/10/27 14:12:18;;;;;;;;;;;19.60;99.90;;;19.03;97.13;96503.06;10542412;28;1172;-74
2022/10/27 14:17:21;;;;;;;;;;;19.70;99.90;;;18.89;98.53;96501.22;10539216;28;1556;-74
2022/10/27 14:22:24;;;;;;;;;;;19.80;99.90;;;18.86;98.38;96506.47;10540136;28;1989;-73
2022/10/27 14:27:26;;;;;;;;;;;19.60;99.90;;;18.86;99.19;96495.56;10535825;28;1501;-70
2022/10/27 14:32:29;;;;;;;;;;;19.60;99.90;;;18.73;99.11;96505.41;10543265;28;1174;-72
2022/10/27 14:37:32;;;;;;;;;;;19.50;99.90;;;18.53;100.00;96503.13;10543489;28;1624;-70
2022/10/27 14:42:34;;;;;;;;;;;19.40;99.90;;;18.70;98.68;96494.31;10543071;28;1902;-71
2022/10/27 14:47:37;;;;;;;;;;;19.30;99.90;;;18.74;97.46;96504.28;10541912;28;1616;-72
2022/10/27 14:52:45;;;;;;;;;;;19.50;99.90;;;18.63;97.50;96503.66;10549729;28;1640;-72
2022/10/27 14:57:50;;;;;;;;;;;19.40;99.90;;;18.39;100.00;96503.16;10534288;28;1537;-70
2022/10/27 15:02:53;;;;;;;;;;;19.30;99.90;;;18.31;100.00;96501.94;10539597;28;1980;-72
2022/10/27 15:07:56;;;;;;;;;;;19.10;99.90;;;18.30;100.00;96496.81;10537597;28;1632;-70
2022/10/27 15:12:59;;;;;;;;;;;19.10;99.90;;;18.42;99.14;96501.72;10539702;28;1285;-70
2022/10/27 15:18:01;;;;;;;;;;;19.20;99.90;;;18.14;100.00;96501.78;10538583;28;1715;-72
2022/10/27 15:23:04;;;;;;;;;;;19.10;99.90;;;18.11;100.00;96496.94;10539522;28;1910;-73
2022/10/27 15:28:07;;;;;;;;;;;19.00;99.90;;;17.93;100.00;96500.56;10530407;28;1351;-72
2022/10/27 15:33:09;;;;;;;;;;;18.80;99.90;;;17.76;100.00;96498.47;10538449;28;1129;-71
2022/10/27 15:38:12;;;;;;;;;;;18.70;99.90;;;17.67;100.00;96509.19;10534709;28;1695;-71
2022/10/27 15:43:15;;;;;;;;;;;18.60;99.90;;;17.46;100.00;96508.75;10531744;28;1913;-72
2022/10/27 15:48:17;;;;;;;;;;;18.40;99.90;;;17.18;100.00;96507.09;10537534;28;1145;-71
2022/10/27 15:53:20;;;;;;;;;;;18.20;99.90;;;16.88;100.00;96508.41;10536742;28;1703;-71
2022/10/27 15:58:23;;;;;;;;;;;18.00;99.90;;;16.71;100.00;96515.16;10529785;28;1604;-73
2022/10/27 16:03:25;;;;;;;;;;;17.80;99.90;;;16.65;100.00;96515.50;10536768;28;1961;-71
2022/10/27 16:08:28;;;;;;;;;;;17.60;99.90;;;16.47;100.00;96515.19;10528979;28;1616;-72
2022/10/27 16:13:31;;;;;;;;;;;17.50;99.90;;;16.49;100.00;96523.06;10536516;28;1130;-72
2022/10/27 16:18:33;;;;;;;;;;;17.40;99.90;;;16.36;100.00;96523.78;10535521;28;1632;-72
2022/10/27 16:23:36;;;;;;;;;;;17.40;99.90;;;16.04;100.00;96528.00;10541363;28;1910;-72
2022/10/27 16:28:42;;;;;;;;;;;17.20;99.90;;;16.09;100.00;96521.66;10520768;28;1624;-71
2022/10/27 16:33:44;;;;;;;;;;;17.00;99.90;;;16.01;100.00;96514.19;10537155;28;1193;-71
2022/10/27 16:38:47;;;;;;;;;;;17.00;99.90;;;16.00;100.00;96521.53;10534467;28;1679;-71
2022/10/27 16:43:50;;;;;;;;;;;16.90;99.90;;;15.84;100.00;96522.78;10536700;28;1913;-72
2022/10/27 16:48:53;;;;;;;;;;;16.80;99.90;;;15.68;100.00;96527.56;10533225;28;1672;-70
2022/10/27 16:53:56;;;;;;;;;;;16.70;99.90;;;15.44;100.00;96535.63;10528443;28;2096;-73
2022/10/27 16:58:58;;;;;;;;;;;16.50;99.90;;;15.10;100.00;96536.50;10523007;28;2161;-72
2022/10/27 17:04:01;;;;;;;;;;;16.30;99.90;;;15.19;100.00;96531.25;10527145;28;1957;-75
2022/10/27 17:09:03;;;;;;;;;;;16.20;99.90;;;15.15;100.00;96532.94;10531815;28;1517;-73
2022/10/27 17:14:07;;;;;;;;;;;16.10;99.90;;;14.87;100.00;96539.91;10525178;28;1682;-74
2022/10/27 17:19:10;;;;;;;;;;;16.00;99.90;;;14.74;100.00;96546.78;10530145;28;1411;-72
2022/10/27 17:24:14;;;;;;;;;;;15.90;99.90;;;14.62;100.00;96540.09;10527037;28;1914;-72
2022/10/27 17:29:17;;;;;;;;;;;15.70;99.90;;;14.37;100.00;96552.63;10521666;28;1649;-72
2022/10/27 17:34:20;;;;;;;;;;;15.50;99.90;;;14.17;100.00;96550.84;10526519;28;1232;-72
2022/10/27 17:39:23;;;;;;;;;;;15.40;99.90;;;14.04;100.00;96554.94;10534122;28;1722;-72
2022/10/27 17:44:25;;;;;;;;;;;15.30;99.90;;;14.04;100.00;96549.53;10536403;28;1969;-72
2022/10/27 17:49:38;;;;;;;;;;;15.00;99.90;;;13.94;100.00;96557.72;10532244;28;1600;-72
2022/10/27 17:54:41;;;;;;;;;;;15.10;99.90;;;13.85;100.00;96559.34;10515339;28;1481;-72
2022/10/27 17:59:44;;;;;;;;;;;15.00;99.90;;;13.74;100.00;96577.50;10509800;28;1438;-74
2022/10/27 18:04:46;;;;;;;;;;;14.90;99.90;;;13.62;100.00;96582.38;10520433;28;1913;-72
2022/10/27 18:09:49;;;;;;;;;;;14.70;99.90;;;13.53;100.00;96579.41;10521781;28;1486;-75
2022/10/27 18:14:52;;;;;;;;;;;14.70;99.90;;;13.77;100.00;96581.53;10528932;28;1785;-77
2022/10/27 18:19:54;;;;;;;;;;;14.70;99.90;;;13.77;100.00;96581.53;10523613;28;1239;-76
2022/10/27 18:24:58;;;;;;;;;;;14.70;99.90;;;13.60;100.00;96583.72;10529923;28;1913;-76
2022/10/27 18:30:01;;;;;;;;;;;14.60;99.90;;;13.42;100.00;96577.00;10532650;28;2184;-73
2022/10/27 18:35:03;;;;;;;;;;;14.50;99.90;;;13.36;100.00;96583.47;10535112;28;1853;-74
2022/10/27 18:40:06;;;;;;;;;;;14.40;99.90;;;13.50;100.00;96579.97;10528593;28;1719;-78
2022/10/27 18:45:09;;;;;;;;;;;14.40;99.90;;;13.24;100.00;96581.06;10537911;28;1917;-75
2022/10/27 18:50:12;;;;;;;;;;;14.30;99.90;;;13.16;100.00;96582.38;10530987;28;1314;-71
2022/10/27 18:55:15;;;;;;;;;;;14.20;99.90;;;13.20;100.00;96577.25;10533054;28;1489;-74
2022/10/27 19:00:17;;;;;;;;;;;14.20;99.90;;;13.27;100.00;96579.72;10529039;28;1453;-72
2022/10/27 19:05:21;;;;;;;;;;;14.20;99.90;;;13.11;100.00;96578.88;10529179;28;1905;-73
2022/10/27 19:10:23;;;;;;;;;;;14.20;99.90;;;12.96;100.00;96571.56;10528197;28;1439;-73
2022/10/27 19:15:26;;;;;;;;;;;14.10;99.90;;;12.98;100.00;96570.25;10531555;28;1501;-73
2022/10/27 19:20:29;;;;;;;;;;;14.00;99.90;;;12.87;100.00;96565.91;10527967;28;1948;-74
2022/10/27 19:25:32;;;;;;;;;;;13.90;99.90;;;12.90;100.00;96568.06;10537256;28;2290;-73
2022/10/27 19:30:35;;;;;;;;;;;13.90;99.90;;;13.13;100.00;96568.63;10522931;28;1454;-72
2022/10/27 19:35:38;;;;;;;;;;;13.90;99.90;;;13.06;100.00;96573.47;10536820;28;1481;-72
2022/10/27 19:40:41;;;;;;;;;;;14.00;99.90;;;13.07;100.00;96564.31;10520853;28;1954;-73
2022/10/27 19:45:44;;;;;;;;;;;14.00;99.90;;;12.85;100.00;96578.88;10542363;28;1922;-72
2022/10/27 19:50:47;;;;;;;;;;;14.00;99.90;;;12.83;100.00;96574.81;10542619;28;1185;-74
2022/10/27 19:55:50;;;;;;;;;;;13.80;99.90;;;12.72;100.00;96579.38;10536684;28;1601;-73
2022/10/27 20:00:52;;;;;;;;;;;13.80;99.90;;;12.61;100.00;96569.66;10538652;28;1835;-75
2022/10/27 20:05:57;;;;;;;;;;;13.60;99.90;;;12.58;100.00;96564.78;10511140;28;1953;-72
2022/10/27 20:10:59;;;;;;;;;;;13.60;99.90;;;12.45;100.00;96566.91;10536667;28;1588;-72
2022/10/27 20:16:02;;;;;;;;;;;13.50;99.90;;;12.30;100.00;96564.19;10536974;28;1656;-72
2022/10/27 20:21:05;;;;;;;;;;;13.40;99.90;;;12.25;100.00;96563.34;10536539;28;1117;-72
2022/10/27 20:26:08;;;;;;;;;;;13.30;99.90;;;12.24;100.00;96556.34;10536285;28;1985;-72
2022/10/27 20:31:30;;;;;;;;;;;13.20;99.90;;;12.34;100.00;96557.19;10530767;28;2118;-73
2022/10/27 20:36:33;;;;;;;;;;;13.30;99.90;;;12.29;100.00;96564.44;10534414;28;1536;-73
2022/10/27 20:41:36;;;;;;;;;;;13.30;99.90;;;12.27;100.00;96555.78;10540625;28;1077;-75
2022/10/27 20:46:38;;;;;;;;;;;13.20;99.90;;;12.19;100.00;96559.81;10553820;28;1960;-71
2022/10/27 20:51:41;;;;;;;;;;;13.20;99.90;;;12.28;100.00;96560.09;10540096;28;1154;-72
2022/10/27 20:56:47;;;;;;;;;;;13.20;99.90;;;12.30;100.00;96553.41;10524333;28;1640;-74
2022/10/27 21:01:52;;;;;;;;;;;13.30;99.90;;;12.34;100.00;96559.03;10529583;28;1224;-75
2022/10/27 21:06:55;;;;;;;;;;;13.20;99.90;;;12.29;100.00;96561.75;10534807;28;1918;-72
2022/10/27 21:11:58;;;;;;;;;;;13.20;99.90;;;12.21;100.00;96564.94;10535779;28;1148;-71
2022/10/27 21:17:01;;;;;;;;;;;13.20;99.90;;;12.00;100.00;96566.75;10547888;28;1953;-72
2022/10/27 21:22:04;;;;;;;;;;;13.10;99.90;;;11.96;100.00;96571.03;10532812;28;1636;-70
2022/10/27 21:27:08;;;;;;;;;;;13.00;99.90;;;11.84;100.00;96569.38;10531929;28;1906;-73
2022/10/27 21:32:11;;;;;;;;;;;13.00;99.90;;;11.75;100.00;96568.22;10534342;28;1204;-73
2022/10/27 21:37:14;;;;;;;;;;;12.80;99.90;;;11.74;100.00;96563.91;10529651;28;1644;-72
2022/10/27 21:42:18;;;;;;;;;;;12.70;99.90;;;11.61;100.00;96559.78;10534350;28;1181;-72
2022/10/27 21:47:21;;;;;;;;;;;12.70;99.90;;;11.52;100.00;96568.63;10526822;28;1910;-72
2022/10/27 21:52:23;;;;;;;;;;;12.60;99.90;;;11.52;100.00;96572.13;10534779;28;1770;-73
2022/10/27 21:57:26;;;;;;;;;;;12.60;99.90;;;11.60;100.00;96566.25;10542915;28;1472;-72
2022/10/27 22:02:29;;;;;;;;;;;12.50;99.90;;;11.50;100.00;96568.06;10543058;28;1239;-73
2022/10/27 22:07:38;;;;;;;;;;;12.50;99.90;;;11.81;100.00;96586.06;10543578;28;1969;-72
2022/10/27 22:12:46;;;;;;;;;;;12.50;99.90;;;11.78;100.00;96578.47;10507259;28;1184;-71
2022/10/27 22:17:49;;;;;;;;;;;12.70;99.90;;;11.72;100.00;96586.78;10527837;28;1573;-71
2022/10/27 22:22:52;;;;;;;;;;;12.70;99.90;;;11.56;100.00;96588.56;10545054;28;1110;-72
2022/10/27 22:27:55;;;;;;;;;;;12.60;99.90;;;11.33;100.00;96595.97;10541413;28;1997;-74
2022/10/27 22:32:59;;;;;;;;;;;12.40;99.90;;;11.25;100.00;96584.84;10545341;28;1293;-73
2022/10/27 22:38:02;;;;;;;;;;;12.40;99.90;;;11.09;100.00;96578.56;10548923;28;1683;-73
2022/10/27 22:43:05;;;;;;;;;;;12.20;99.90;;;10.98;100.00;96583.03;10547736;28;1181;-73
2022/10/27 22:48:08;;;;;;;;;;;12.00;99.90;;;10.95;100.00;96590.81;10552244;28;1910;-73
2022/10/27 22:53:10;;;;;;;;;;;12.00;99.90;;;10.90;100.00;96586.19;10544655;28;1232;-74
2022/10/27 22:58:14;;;;;;;;;;;12.00;99.90;;;10.77;100.00;96592.81;10532987;28;1636;-74
2022/10/27 23:03:18;;;;;;;;;;;11.90;99.90;;;10.73;100.00;96597.06;10542587;28;1173;-75